createdAt,value
2023-03-08T00:00:47.944Z,92584.66
2023-03-08T00:03:15.174Z,92606.66
2023-03-08T00:05:42.127Z,92582.69
2023-03-08T00:08:08.803Z,92602.31
2023-03-08T00:10:35.239Z,92575.88
2023-03-08T00:13:01.644Z,92584.06
2023-03-08T00:15:28.030Z,92582.59
2023-03-08T00:17:54.448Z,92585.56
2023-03-08T00:20:21.954Z,92568.03
2023-03-08T00:22:48.392Z,92563.59
2023-03-08T00:25:16.489Z,92572.19
2023-03-08T00:27:43.115Z,92573.53
2023-03-08T00:30:11.868Z,92587.94
2023-03-08T00:32:38.322Z,92570.25
2023-03-08T00:35:05.167Z,92593.25
2023-03-08T00:37:31.789Z,92584.50
2023-03-08T00:40:09.925Z,92555.09
2023-03-08T00:42:36.332Z,92572.13
2023-03-08T00:45:02.848Z,92566.63
2023-03-08T00:47:29.308Z,92574.63
2023-03-08T00:49:55.716Z,92581.16
2023-03-08T00:52:22.144Z,92575.44
2023-03-08T00:54:48.576Z,92585.38
2023-03-08T00:57:16.317Z,92566.84
2023-03-08T00:59:42.711Z,92591.25
2023-03-08T01:02:09.111Z,92572.59
2023-03-08T01:04:35.481Z,92587.84
2023-03-08T01:07:01.904Z,92587.94
2023-03-08T01:09:46.661Z,92591.13
2023-03-08T01:12:13.050Z,92580.22
2023-03-08T01:14:39.478Z,92564.75
2023-03-08T01:17:05.915Z,92568.72
2023-03-08T01:19:32.692Z,92583.41
2023-03-08T01:21:59.104Z,92585.88
2023-03-08T01:24:25.484Z,92557.13
2023-03-08T01:26:53.755Z,92568.84
2023-03-08T01:29:20.143Z,92581.16
2023-03-08T01:31:57.546Z,92570.09
2023-03-08T01:34:23.967Z,92586.25
2023-03-08T01:36:50.375Z,92561.56
2023-03-08T01:39:16.771Z,92569.41
2023-03-08T01:41:43.181Z,92544.97
2023-03-08T01:44:22.589Z,92556.19
2023-03-08T01:46:49.966Z,92570.03
2023-03-08T01:49:16.302Z,92557.34
2023-03-08T01:51:57.293Z,92557.13
2023-03-08T01:54:28.603Z,92523.25
2023-03-08T01:57:00.751Z,92522.13
2023-03-08T01:59:28.057Z,92516.25
2023-03-08T02:02:03.555Z,92508.75
2023-03-08T02:04:29.937Z,92513.91
2023-03-08T02:06:56.358Z,92508.63
2023-03-08T02:09:23.390Z,92496.59
2023-03-08T02:11:55.291Z,92503.34
2023-03-08T02:14:21.752Z,92499.53
2023-03-08T02:16:48.139Z,92486.63
2023-03-08T02:19:22.233Z,92479.28
2023-03-08T02:21:48.688Z,92481.84
2023-03-08T02:24:23.303Z,92476.34
2023-03-08T02:26:59.545Z,92475.59
2023-03-08T02:29:25.926Z,92466.31
2023-03-08T02:31:52.332Z,92457.91
2023-03-08T02:34:18.696Z,92443.31
2023-03-08T02:36:45.084Z,92458.50
2023-03-08T02:39:11.536Z,92446.81
2023-03-08T02:41:37.909Z,92435.31
2023-03-08T02:44:04.510Z,92433.91
2023-03-08T02:46:30.953Z,92438.50
2023-03-08T02:48:57.331Z,92446.78
2023-03-08T02:51:23.761Z,92422.34
2023-03-08T02:53:50.142Z,92439.34
2023-03-08T02:56:16.602Z,92416.78
2023-03-08T02:58:43.108Z,92440.69
2023-03-08T03:01:13.370Z,92465.66
2023-03-08T03:03:40.599Z,92458.78
2023-03-08T03:06:19.012Z,92460.13
2023-03-08T03:08:46.091Z,92469.94
2023-03-08T03:11:17.781Z,92453.72
2023-03-08T03:13:44.848Z,92431.28
2023-03-08T03:16:15.118Z,92416.28
2023-03-08T03:18:47.565Z,92419.53
2023-03-08T03:21:14.436Z,92401.19
2023-03-08T03:23:41.857Z,92439.50
2023-03-08T03:26:11.298Z,92441.84
2023-03-08T03:28:37.742Z,92433.34
2023-03-08T03:31:09.696Z,92422.91
2023-03-08T03:33:36.396Z,92439.78
2023-03-08T03:36:03.540Z,92441.69
2023-03-08T03:38:30.378Z,92424.22
2023-03-08T03:41:01.782Z,92413.44
2023-03-08T03:43:28.405Z,92411.75
2023-03-08T03:45:58.955Z,92389.59
2023-03-08T03:48:25.434Z,92394.59
2023-03-08T03:51:03.425Z,92368.47
2023-03-08T03:53:31.358Z,92400.00
2023-03-08T03:56:05.996Z,92383.81
2023-03-08T03:58:32.704Z,92382.34
2023-03-08T04:00:59.398Z,92383.06
2023-03-08T04:03:26.291Z,92384.28
2023-03-08T04:05:53.248Z,92369.22
2023-03-08T04:08:19.644Z,92319.91
2023-03-08T04:10:46.084Z,92337.94
2023-03-08T04:13:12.814Z,92352.44
2023-03-08T04:15:39.209Z,92343.19
2023-03-08T04:18:05.858Z,92326.66
2023-03-08T04:20:32.232Z,92322.47
2023-03-08T04:22:58.658Z,92301.19
2023-03-08T04:25:25.090Z,92296.19
2023-03-08T04:28:10.810Z,92320.81
2023-03-08T04:30:37.331Z,92301.41
2023-03-08T04:33:03.710Z,92268.00
2023-03-08T04:35:30.201Z,92281.19
2023-03-08T04:37:56.649Z,92315.53
2023-03-08T04:40:23.138Z,92288.91
2023-03-08T04:42:49.617Z,92304.00
2023-03-08T04:45:22.320Z,92295.06
2023-03-08T04:47:48.719Z,92284.34
2023-03-08T04:50:15.880Z,92285.84
2023-03-08T04:52:42.274Z,92274.81
2023-03-08T04:55:08.880Z,92283.50
2023-03-08T04:57:35.354Z,92282.13
2023-03-08T05:00:01.750Z,92292.41
2023-03-08T05:02:28.149Z,92281.38
2023-03-08T05:05:04.364Z,92252.47
2023-03-08T05:07:30.703Z,92282.25
2023-03-08T05:09:57.094Z,92264.78
2023-03-08T05:12:23.476Z,92259.66
2023-03-08T05:14:49.991Z,92262.22
2023-03-08T05:17:16.575Z,92248.84
2023-03-08T05:19:42.981Z,92244.56
2023-03-08T05:22:37.206Z,92276.63
2023-03-08T05:25:11.533Z,92259.28
2023-03-08T05:27:37.945Z,92271.53
2023-03-08T05:30:05.591Z,92270.13
2023-03-08T05:32:32.719Z,92267.38
2023-03-08T05:34:59.143Z,92263.75
2023-03-08T05:37:27.400Z,92236.28
2023-03-08T05:39:54.125Z,92257.72
2023-03-08T05:42:20.525Z,92259.06
2023-03-08T05:44:46.934Z,92249.38
2023-03-08T05:47:13.382Z,92236.59
2023-03-08T05:49:52.176Z,92230.06
2023-03-08T05:52:18.605Z,92267.81
2023-03-08T05:54:45.017Z,92244.06
2023-03-08T05:57:11.496Z,92200.66
2023-03-08T05:59:37.898Z,92263.72
2023-03-08T06:02:04.356Z,92225.53
2023-03-08T06:04:43.149Z,92239.22
2023-03-08T06:07:09.604Z,92248.78
2023-03-08T06:09:35.992Z,92241.50
2023-03-08T06:12:02.415Z,92233.13
2023-03-08T06:14:28.809Z,92253.72
2023-03-08T06:16:55.270Z,92259.03
2023-03-08T06:19:21.710Z,92242.34
2023-03-08T06:21:48.129Z,92251.03
2023-03-08T06:24:14.505Z,92234.50
2023-03-08T06:26:40.900Z,92215.88
2023-03-08T06:29:17.567Z,92228.00
2023-03-08T06:31:49.190Z,92250.69
2023-03-08T06:34:22.722Z,92216.00
2023-03-08T06:36:49.180Z,92216.25
2023-03-08T06:39:15.601Z,92238.16
2023-03-08T06:41:42.056Z,92236.94
2023-03-08T06:44:08.433Z,92242.00
2023-03-08T06:46:34.906Z,92224.94
2023-03-08T06:49:04.208Z,92218.16
2023-03-08T06:51:32.688Z,92237.72
2023-03-08T06:53:59.088Z,92224.09
2023-03-08T06:56:27.198Z,92228.91
2023-03-08T06:58:53.715Z,92224.03
2023-03-08T07:01:20.219Z,92221.53
2023-03-08T07:03:59.801Z,92216.69
2023-03-08T07:06:26.286Z,92225.31
2023-03-08T07:08:52.664Z,92215.53
2023-03-08T07:11:19.120Z,92229.09
2023-03-08T07:13:45.505Z,92222.59
2023-03-08T07:16:13.545Z,92224.34
2023-03-08T07:18:40.929Z,92214.38
2023-03-08T07:21:07.740Z,92219.66
2023-03-08T07:23:34.213Z,92206.22
2023-03-08T07:26:04.606Z,92215.41
2023-03-08T07:28:31.001Z,92193.59
2023-03-08T07:31:13.081Z,92179.72
2023-03-08T07:33:49.589Z,92169.97
2023-03-08T07:36:16.040Z,92149.91
2023-03-08T07:38:42.491Z,92172.38
2023-03-08T07:41:08.938Z,92145.16
2023-03-08T07:43:35.407Z,92130.47
2023-03-08T07:46:02.760Z,92154.66
2023-03-08T07:48:29.859Z,92122.91
2023-03-08T07:51:02.338Z,92123.06
2023-03-08T07:53:29.386Z,92118.50
2023-03-08T07:55:57.695Z,92117.72
2023-03-08T07:58:24.073Z,92121.31
2023-03-08T08:00:50.458Z,92122.03
2023-03-08T08:03:17.057Z,92115.06
2023-03-08T08:05:43.724Z,92129.84
2023-03-08T08:08:13.753Z,92099.75
2023-03-08T08:10:43.253Z,92107.00
2023-03-08T08:13:11.766Z,92099.56
2023-03-08T08:15:38.187Z,92094.31
2023-03-08T08:18:04.814Z,92078.47
2023-03-08T08:20:31.268Z,92069.75
2023-03-08T08:23:01.021Z,92058.59
2023-03-08T08:25:27.558Z,92077.63
2023-03-08T08:27:54.008Z,92059.34
2023-03-08T08:30:20.610Z,92062.44
2023-03-08T08:32:47.181Z,92049.09
2023-03-08T08:35:13.706Z,92057.44
2023-03-08T08:37:40.096Z,92069.13
2023-03-08T08:40:10.579Z,92062.34
2023-03-08T08:42:37.101Z,92073.47
2023-03-08T08:45:03.934Z,92056.34
2023-03-08T08:47:30.461Z,92039.25
2023-03-08T08:49:56.862Z,92038.63
2023-03-08T08:52:23.429Z,92042.47
2023-03-08T08:54:52.979Z,92035.06
2023-03-08T08:57:19.428Z,92031.38
2023-03-08T08:59:46.445Z,92014.34
2023-03-08T09:02:12.948Z,92030.69
2023-03-08T09:04:39.479Z,92037.44
2023-03-08T09:07:07.384Z,92040.88
2023-03-08T09:09:33.804Z,92063.13
2023-03-08T09:12:00.197Z,92073.16
2023-03-08T09:14:26.568Z,92079.38
2023-03-08T09:16:53.209Z,92092.84
2023-03-08T09:19:19.767Z,92096.31
2023-03-08T09:21:46.333Z,92063.66
2023-03-08T09:24:13.212Z,92067.13
2023-03-08T09:26:42.616Z,92086.91
2023-03-08T09:29:11.008Z,92074.09
2023-03-08T09:31:38.814Z,92070.22
2023-03-08T09:34:17.530Z,92070.88
2023-03-08T09:36:44.019Z,92051.94
2023-03-08T09:39:13.036Z,92077.38
2023-03-08T09:41:45.546Z,92075.00
2023-03-08T09:44:34.699Z,92070.97
2023-03-08T09:47:15.161Z,92077.59
2023-03-08T09:49:55.159Z,92053.25
2023-03-08T09:52:48.586Z,92080.50
2023-03-08T09:55:30.387Z,92075.72
2023-03-08T09:58:02.764Z,92065.22
2023-03-08T10:00:33.966Z,92045.03
2023-03-08T10:03:22.042Z,92011.06
2023-03-08T10:06:21.648Z,92039.59
2023-03-08T10:08:49.774Z,92044.78
2023-03-08T10:11:36.398Z,92015.50
2023-03-08T10:14:32.234Z,92040.06
2023-03-08T10:17:10.177Z,92039.69
2023-03-08T10:19:57.580Z,92012.25
2023-03-08T10:22:30.561Z,92001.88
2023-03-08T10:25:23.066Z,92015.34
2023-03-08T10:27:53.009Z,92013.66
2023-03-08T10:30:23.461Z,92010.28
2023-03-08T10:32:56.057Z,92021.16
2023-03-08T10:35:39.492Z,92020.22
2023-03-08T10:38:16.133Z,92025.28
2023-03-08T10:40:44.760Z,92014.22
2023-03-08T10:43:26.508Z,92005.94
2023-03-08T10:46:02.502Z,92021.31
2023-03-08T10:48:29.320Z,92035.28
2023-03-08T10:51:07.247Z,92041.38
2023-03-08T10:53:33.703Z,92041.91
2023-03-08T10:56:01.488Z,92043.00
2023-03-08T10:58:40.189Z,92016.53
2023-03-08T11:01:22.520Z,92017.44
2023-03-08T11:04:16.005Z,92029.38
2023-03-08T11:07:24.205Z,92027.72
2023-03-08T11:09:50.675Z,92028.75
2023-03-08T11:12:27.415Z,92034.22
2023-03-08T11:14:53.983Z,92017.19
2023-03-08T11:17:24.406Z,92063.66
2023-03-08T11:20:13.740Z,92031.91
2023-03-08T11:22:49.002Z,92067.72
2023-03-08T11:25:25.115Z,92065.81
2023-03-08T11:28:17.919Z,92051.53
2023-03-08T11:31:05.627Z,92070.69
2023-03-08T11:33:41.912Z,92079.19
2023-03-08T11:36:41.269Z,92062.22
2023-03-08T11:39:38.301Z,92062.28
2023-03-08T11:42:21.000Z,92053.38
2023-03-08T11:44:53.280Z,92071.97
2023-03-08T11:47:58.079Z,92073.94
2023-03-08T11:50:56.752Z,92072.03
2023-03-08T11:53:35.543Z,92079.06
2023-03-08T11:56:27.000Z,92081.16
2023-03-08T11:59:10.026Z,92057.09
2023-03-08T12:01:49.618Z,92052.78
2023-03-08T12:04:52.038Z,92047.13
2023-03-08T12:07:30.296Z,92040.66
2023-03-08T12:10:09.049Z,92039.31
2023-03-08T12:12:43.813Z,92079.00
2023-03-08T12:15:51.493Z,92075.56
2023-03-08T12:18:29.539Z,92039.31
2023-03-08T12:21:07.817Z,92057.25
2023-03-08T12:23:51.386Z,92046.41
2023-03-08T12:26:24.904Z,92014.09
2023-03-08T12:29:00.495Z,92053.75
2023-03-08T12:31:29.565Z,92054.78
2023-03-08T12:33:58.246Z,92044.81
2023-03-08T12:36:44.169Z,92059.63
2023-03-08T12:39:29.391Z,92046.09
2023-03-08T12:42:09.212Z,92062.66
2023-03-08T12:44:38.869Z,92036.44
2023-03-08T12:47:14.294Z,92067.56
2023-03-08T12:49:49.892Z,92072.28
2023-03-08T12:52:19.493Z,92090.47
2023-03-08T12:55:01.044Z,92089.03
2023-03-08T12:57:52.364Z,92084.75
2023-03-08T13:00:24.811Z,92102.69
2023-03-08T13:03:14.163Z,92070.50
2023-03-08T13:05:45.252Z,92102.72
2023-03-08T13:08:14.333Z,92086.53
2023-03-08T13:10:49.893Z,92083.31
2023-03-08T13:13:44.421Z,92090.28
2023-03-08T13:16:30.177Z,92087.38
2023-03-08T13:19:16.643Z,92089.75
2023-03-08T13:22:24.141Z,92090.88
2023-03-08T13:25:04.087Z,92064.19
2023-03-08T13:27:54.512Z,92074.41
2023-03-08T13:30:47.019Z,92098.13
2023-03-08T13:33:20.437Z,92074.22
2023-03-08T13:36:15.366Z,92103.91
2023-03-08T13:38:41.774Z,92065.41
2023-03-08T13:41:09.363Z,92074.66
2023-03-08T13:43:36.534Z,92039.00
2023-03-08T13:46:10.473Z,92062.91
2023-03-08T13:48:37.483Z,92041.66
2023-03-08T13:51:07.268Z,92062.06
2023-03-08T13:53:37.537Z,92027.38
2023-03-08T13:56:06.944Z,92051.09
2023-03-08T13:58:36.838Z,92044.91
2023-03-08T14:01:24.557Z,92065.75
2023-03-08T14:04:16.364Z,92035.56
2023-03-08T14:06:49.726Z,92032.47
2023-03-08T14:09:24.030Z,92021.63
2023-03-08T14:12:00.963Z,92008.91
2023-03-08T14:14:34.035Z,92012.00
2023-03-08T14:17:00.985Z,92014.19
2023-03-08T14:19:35.204Z,92037.41
2023-03-08T14:22:11.551Z,91999.50
2023-03-08T14:25:15.651Z,92024.88
2023-03-08T14:27:45.221Z,92027.78
2023-03-08T14:30:24.542Z,92026.47
2023-03-08T14:33:13.887Z,92029.50
2023-03-08T14:35:45.261Z,92016.03
2023-03-08T14:38:28.578Z,91995.63
2023-03-08T14:41:06.349Z,92008.84
2023-03-08T14:43:33.064Z,91998.06
2023-03-08T14:46:06.565Z,91972.66
2023-03-08T14:48:37.413Z,91999.56
2023-03-08T14:51:06.910Z,91982.72
2023-03-08T14:53:41.534Z,91996.06
2023-03-08T14:56:14.716Z,92001.50
2023-03-08T14:58:46.180Z,91965.44
2023-03-08T15:01:28.389Z,91976.44
2023-03-08T15:04:00.127Z,91982.88
2023-03-08T15:06:32.091Z,91977.03
2023-03-08T15:09:01.096Z,91970.66
2023-03-08T15:11:31.497Z,91963.88
2023-03-08T15:14:01.106Z,91977.94
2023-03-08T15:16:28.675Z,91946.03
2023-03-08T15:18:57.141Z,91953.69
2023-03-08T15:21:28.366Z,91932.81
2023-03-08T15:23:56.412Z,91939.50
2023-03-08T15:26:34.126Z,91947.91
2023-03-08T15:29:03.471Z,91936.72
2023-03-08T15:31:36.189Z,91946.94
2023-03-08T15:34:02.796Z,91933.34
2023-03-08T15:36:32.517Z,91921.69
2023-03-08T15:38:59.719Z,91919.44
2023-03-08T15:41:28.244Z,91913.06
2023-03-08T15:43:59.758Z,91921.63
2023-03-08T15:46:28.236Z,91923.28
2023-03-08T15:48:54.765Z,91939.97
2023-03-08T15:51:24.187Z,91927.34
2023-03-08T15:53:50.639Z,91904.25
2023-03-08T15:56:22.650Z,91934.94
2023-03-08T15:58:50.029Z,91906.88
2023-03-08T16:01:40.237Z,91918.28
2023-03-08T16:04:15.778Z,91893.91
2023-03-08T16:06:50.399Z,91915.69
2023-03-08T16:09:18.789Z,91900.00
2023-03-08T16:11:49.399Z,91894.16
2023-03-08T16:14:18.999Z,91894.16
2023-03-08T16:16:46.441Z,91899.72
2023-03-08T16:19:12.955Z,91883.72
2023-03-08T16:21:39.442Z,91871.88
2023-03-08T16:24:06.069Z,91876.59
2023-03-08T16:26:32.497Z,91876.50
2023-03-08T16:28:58.913Z,91830.31
2023-03-08T16:31:35.748Z,91880.47
2023-03-08T16:34:03.484Z,91908.66
2023-03-08T16:36:29.932Z,91889.13
2023-03-08T16:39:06.536Z,91902.75
2023-03-08T16:41:34.371Z,91882.53
2023-03-08T16:44:00.929Z,91894.75
2023-03-08T16:46:27.871Z,91905.94
2023-03-08T16:49:05.479Z,91913.31
2023-03-08T16:51:32.483Z,91918.06
2023-03-08T16:53:58.903Z,91920.00
2023-03-08T16:56:28.045Z,91934.53
2023-03-08T16:58:58.770Z,91936.53
2023-03-08T17:01:30.524Z,91926.31
2023-03-08T17:03:59.451Z,91895.47
2023-03-08T17:06:28.800Z,91915.53
2023-03-08T17:08:59.877Z,91916.44
2023-03-08T17:11:28.975Z,91931.31
2023-03-08T17:13:59.329Z,91928.44
2023-03-08T17:16:35.735Z,91922.16
2023-03-08T17:19:05.366Z,91919.16
2023-03-08T17:21:37.957Z,91890.56
2023-03-08T17:24:11.011Z,91913.72
2023-03-08T17:26:50.103Z,91919.78
2023-03-08T17:29:39.442Z,91928.31
2023-03-08T17:32:11.004Z,91914.41
2023-03-08T17:34:37.413Z,91940.31
2023-03-08T17:37:03.895Z,91938.66
2023-03-08T17:39:38.446Z,91948.34
2023-03-08T17:42:08.018Z,91966.28
2023-03-08T17:44:34.947Z,91966.38
2023-03-08T17:47:01.616Z,91960.88
2023-03-08T17:49:39.869Z,91954.81
2023-03-08T17:52:06.994Z,91949.94
2023-03-08T17:54:33.398Z,91966.91
2023-03-08T17:56:59.833Z,91991.78
2023-03-08T17:59:26.197Z,91991.44
2023-03-08T18:01:53.644Z,92014.59
2023-03-08T18:04:32.578Z,92052.56
2023-03-08T18:06:59.122Z,92044.88
2023-03-08T18:09:25.740Z,92048.38
2023-03-08T18:11:52.225Z,92046.03
2023-03-08T18:14:18.713Z,92030.66
2023-03-08T18:16:45.137Z,92053.22
2023-03-08T18:19:15.556Z,92081.63
2023-03-08T18:21:41.978Z,92067.50
2023-03-08T18:24:12.116Z,92075.84
2023-03-08T18:26:38.490Z,92077.88
2023-03-08T18:29:04.902Z,92049.84
2023-03-08T18:31:34.906Z,92058.84
2023-03-08T18:34:01.976Z,92065.16
2023-03-08T18:36:29.401Z,92076.28
2023-03-08T18:38:55.827Z,92066.25
2023-03-08T18:41:27.940Z,92071.56
2023-03-08T18:44:17.258Z,92083.47
2023-03-08T18:46:43.818Z,92050.75
2023-03-08T18:49:12.401Z,92080.34
2023-03-08T18:51:40.750Z,92073.47
2023-03-08T18:54:09.204Z,92065.81
2023-03-08T18:56:35.672Z,92055.72
2023-03-08T18:59:05.255Z,92056.25
2023-03-08T19:01:32.775Z,92062.94
2023-03-08T19:04:12.537Z,92058.53
2023-03-08T19:06:39.997Z,92055.72
2023-03-08T19:09:21.698Z,92033.78
2023-03-08T19:11:48.425Z,92079.00
2023-03-08T19:14:16.398Z,92068.41
2023-03-08T19:16:42.879Z,92038.50
2023-03-08T19:19:12.146Z,92059.41
2023-03-08T19:21:48.673Z,91993.63
2023-03-08T19:24:17.795Z,92034.97
2023-03-08T19:26:47.276Z,92026.03
2023-03-08T19:29:14.977Z,92057.75
2023-03-08T19:32:05.995Z,92044.66
2023-03-08T19:34:41.496Z,92006.50
2023-03-08T19:37:09.465Z,91998.50
2023-03-08T19:39:39.784Z,92010.72
2023-03-08T19:42:09.101Z,92036.75
2023-03-08T19:44:35.780Z,92007.34
2023-03-08T19:47:03.972Z,92012.25
2023-03-08T19:49:32.856Z,92047.63
2023-03-08T19:52:01.783Z,92028.06
2023-03-08T19:54:29.016Z,92004.13
2023-03-08T19:56:56.089Z,92004.34
2023-03-08T19:59:36.609Z,92003.59
2023-03-08T20:02:27.759Z,92025.63
2023-03-08T20:04:54.177Z,91983.25
2023-03-08T20:07:20.576Z,91991.75
2023-03-08T20:09:47.026Z,91979.09
2023-03-08T20:12:13.411Z,91989.03
2023-03-08T20:14:39.870Z,91975.47
2023-03-08T20:17:06.374Z,91992.88
2023-03-08T20:19:46.176Z,91985.84
2023-03-08T20:22:12.672Z,91977.84
2023-03-08T20:24:44.954Z,91968.91
2023-03-08T20:27:11.380Z,91954.22
2023-03-08T20:29:37.886Z,91987.22
2023-03-08T20:32:04.401Z,91991.09
2023-03-08T20:34:33.475Z,91957.41
2023-03-08T20:36:59.874Z,91970.75
2023-03-08T20:39:36.455Z,91993.34
2023-03-08T20:42:15.021Z,91984.06
2023-03-08T20:44:44.082Z,91972.25
2023-03-08T20:47:10.620Z,91969.41
2023-03-08T20:49:37.508Z,91966.34
2023-03-08T20:52:04.069Z,91966.88
2023-03-08T20:54:30.485Z,91948.78
2023-03-08T20:56:58.348Z,91947.31
2023-03-08T20:59:51.951Z,91963.50
2023-03-08T21:02:31.625Z,91945.97
2023-03-08T21:04:58.061Z,91926.88
2023-03-08T21:07:24.465Z,91913.94
2023-03-08T21:09:50.846Z,91930.38
2023-03-08T21:12:17.406Z,91891.03
2023-03-08T21:14:44.190Z,91922.94
2023-03-08T21:17:10.632Z,91921.66
2023-03-08T21:19:37.039Z,91909.34
2023-03-08T21:22:04.075Z,91948.03
2023-03-08T21:24:30.711Z,91916.63
2023-03-08T21:26:57.198Z,91927.13
2023-03-08T21:29:25.128Z,91893.53
2023-03-08T21:31:53.020Z,91930.53
2023-03-08T21:34:20.373Z,91930.19
2023-03-08T21:36:46.918Z,91879.31
2023-03-08T21:39:13.762Z,91929.69
2023-03-08T21:41:43.186Z,91879.09
2023-03-08T21:44:13.647Z,91903.47
2023-03-08T21:46:40.558Z,91919.38
2023-03-08T21:49:07.860Z,91884.19
2023-03-08T21:51:34.945Z,91881.53
2023-03-08T21:54:01.391Z,91900.63
2023-03-08T21:56:27.994Z,91906.00
2023-03-08T21:58:56.428Z,91912.69
2023-03-08T22:01:25.361Z,91884.53
2023-03-08T22:03:51.913Z,91858.69
2023-03-08T22:06:19.071Z,91889.19
2023-03-08T22:08:49.237Z,91841.81
2023-03-08T22:11:15.953Z,91895.94
2023-03-08T22:13:42.979Z,91903.41
2023-03-08T22:16:09.579Z,91896.16
2023-03-08T22:18:36.019Z,91875.63
2023-03-08T22:21:02.643Z,91887.66
2023-03-08T22:23:29.175Z,91877.81
2023-03-08T22:25:55.620Z,91849.03
2023-03-08T22:28:22.167Z,91882.56
2023-03-08T22:30:48.591Z,91855.47
2023-03-08T22:33:15.189Z,91848.84
2023-03-08T22:35:46.485Z,91884.84
2023-03-08T22:38:13.065Z,91865.97
2023-03-08T22:40:48.877Z,91863.31
2023-03-08T22:43:15.422Z,91895.41
2023-03-08T22:45:41.869Z,91890.66
2023-03-08T22:48:09.147Z,91884.31
2023-03-08T22:50:35.609Z,91881.75
2023-03-08T22:53:02.092Z,91878.25
2023-03-08T22:55:28.559Z,91932.69
2023-03-08T22:57:54.941Z,91934.75
2023-03-08T23:00:21.491Z,91944.44
2023-03-08T23:02:48.535Z,91925.81
2023-03-08T23:05:19.385Z,91929.00
2023-03-08T23:08:06.751Z,91938.78
2023-03-08T23:10:34.355Z,91966.84
2023-03-08T23:13:01.240Z,91939.41
2023-03-08T23:15:33.408Z,91954.72
2023-03-08T23:17:59.955Z,91933.19
2023-03-08T23:20:26.443Z,91924.88
2023-03-08T23:22:52.962Z,91965.75
2023-03-08T23:25:19.505Z,91972.53
2023-03-08T23:27:45.904Z,91938.72
2023-03-08T23:30:15.353Z,91943.63
2023-03-08T23:32:44.715Z,91941.41
2023-03-08T23:35:12.439Z,91955.28
2023-03-08T23:37:40.451Z,91943.25
2023-03-08T23:40:10.745Z,91886.16
2023-03-08T23:42:38.073Z,91922.25
2023-03-08T23:45:05.471Z,91965.41
2023-03-08T23:47:32.189Z,91969.38
2023-03-08T23:49:58.801Z,91981.84
2023-03-08T23:52:25.518Z,91922.97
2023-03-08T23:54:52.007Z,91906.13
2023-03-08T23:57:18.582Z,91907.50
2023-03-08T23:59:45.035Z,91963.09
